sensor_id;sensor_type;location;lat;lon;timestamp;pressure;altitude;pressure_sealevel;temperature;humidity
8280;BME280;8335;42.646;23.380;2023-05-01T00:01:00;144401.00;;;11.41;94.43
8280;BME280;8335;42.646;23.380;2023-05-01T00:03:30;144405.94;;;11.43;94.45
8280;BME280;8335;42.646;23.380;2023-05-01T00:06:00;144403.47;;;11.42;93.91
8280;BME280;8335;42.646;23.380;2023-05-01T00:08:27;144396.03;;;11.39;94.06
8280;BME280;8335;42.646;23.380;2023-05-01T00:10:54;144388.53;;;11.36;94.35
8280;BME280;8335;42.646;23.380;2023-05-01T00:13:21;144381.09;;;11.33;94.58
8280;BME280;8335;42.646;23.380;2023-05-01T00:15:49;144373.66;;;11.29;94.78
8280;BME280;8335;42.646;23.380;2023-05-01T00:18:17;144366.16;;;11.26;95.13
8280;BME280;8335;42.646;23.380;2023-05-01T00:20:44;144356.25;;;11.22;94.89
8280;BME280;8335;42.646;23.380;2023-05-01T00:23:10;144350.00;;;11.20;95.11
8280;BME280;8335;42.646;23.380;2023-05-01T00:25:38;144343.78;;;11.17;95.15
8280;BME280;8335;42.646;23.380;2023-05-01T00:28:05;144330.09;;;11.12;95.84
8280;BME280;8335;42.646;23.380;2023-05-01T00:30:32;144318.88;;;11.07;95.48
8280;BME280;8335;42.646;23.380;2023-05-01T00:32:58;144317.66;;;11.07;95.71
8280;BME280;8335;42.646;23.380;2023-05-01T00:35:28;144312.69;;;11.05;96.13
8280;BME280;8335;42.646;23.380;2023-05-01T00:37:55;144316.41;;;11.06;96.13
8280;BME280;8335;42.646;23.380;2023-05-01T00:40:22;144297.75;;;10.98;96.64
8280;BME280;8335;42.646;23.380;2023-05-01T00:42:49;144269.19;;;10.87;96.92
8280;BME280;8335;42.646;23.380;2023-05-01T00:45:16;144272.91;;;10.88;97.29
8280;BME280;8335;42.646;23.380;2023-05-01T00:47:43;144267.94;;;10.86;97.51
8280;BME280;8335;42.646;23.380;2023-05-01T00:50:10;144261.69;;;10.84;97.78
8280;BME280;8335;42.646;23.380;2023-05-01T00:52:39;144256.75;;;10.82;97.67
8280;BME280;8335;42.646;23.380;2023-05-01T00:55:07;144253.03;;;10.80;98.07
8280;BME280;8335;42.646;23.380;2023-05-01T00:57:34;144244.28;;;10.77;98.38
8280;BME280;8335;42.646;23.380;2023-05-01T01:00:00;144221.94;;;10.67;99.01
8280;BME280;8335;42.646;23.380;2023-05-01T01:02:28;144219.44;;;10.66;99.34
8280;BME280;8335;42.646;23.380;2023-05-01T01:04:55;144216.97;;;10.65;99.26
8280;BME280;8335;42.646;23.380;2023-05-01T01:07:28;144214.44;;;10.64;99.72
8280;BME280;8335;42.646;23.380;2023-05-01T01:10:04;144211.97;;;10.63;99.89
8280;BME280;8335;42.646;23.380;2023-05-01T01:12:40;144148.59;;;10.37;100.00
8280;BME280;8335;42.646;23.380;2023-05-01T01:15:17;144188.34;;;10.54;100.00
8280;BME280;8335;42.646;23.380;2023-05-01T01:17:49;144204.53;;;10.60;100.00
8280;BME280;8335;42.646;23.380;2023-05-01T01:20:30;144197.03;;;10.57;100.00
8280;BME280;8335;42.646;23.380;2023-05-01T01:23:11;144208.25;;;10.62;100.00
8280;BME280;8335;42.646;23.380;2023-05-01T01:25:59;144199.56;;;10.58;100.00
8280;BME280;8335;42.646;23.380;2023-05-01T01:28:44;144183.41;;;10.52;100.00
8280;BME280;8335;42.646;23.380;2023-05-01T01:31:19;144169.72;;;10.46;100.00
8280;BME280;8335;42.646;23.380;2023-05-01T01:33:57;144151.06;;;10.38;100.00
8280;BME280;8335;42.646;23.380;2023-05-01T01:36:33;144143.59;;;10.35;100.00
8280;BME280;8335;42.646;23.380;2023-05-01T01:39:08;144129.97;;;10.30;100.00
8280;BME280;8335;42.646;23.380;2023-05-01T01:41:37;144107.50;;;10.20;100.00
8280;BME280;8335;42.646;23.380;2023-05-01T01:44:08;144092.63;;;10.14;100.00
8280;BME280;8335;42.646;23.380;2023-05-01T01:46:38;144057.84;;;10.00;100.00
8280;BME280;8335;42.646;23.380;2023-05-01T01:49:10;144062.78;;;10.02;100.00
8280;BME280;8335;42.646;23.380;2023-05-01T01:51:40;144044.16;;;9.95;100.00
8280;BME280;8335;42.646;23.380;2023-05-01T01:54:08;143991.97;;;9.73;100.00
8280;BME280;8335;42.646;23.380;2023-05-01T01:56:39;144030.47;;;9.89;100.00
8280;BME280;8335;42.646;23.380;2023-05-01T01:59:08;144019.28;;;9.84;100.00
8280;BME280;8335;42.646;23.380;2023-05-01T02:01:38;144001.91;;;9.77;100.00
8280;BME280;8335;42.646;23.380;2023-05-01T02:04:09;144010.63;;;9.81;100.00
8280;BME280;8335;42.646;23.380;2023-05-01T02:06:38;144018.06;;;9.84;100.00
8280;BME280;8335;42.646;23.380;2023-05-01T02:09:07;144029.25;;;9.88;100.00
8280;BME280;8335;42.646;23.380;2023-05-01T02:11:35;144013.09;;;9.82;100.00
8280;BME280;8335;42.646;23.380;2023-05-01T02:14:04;144014.31;;;9.82;100.00
8280;BME280;8335;42.646;23.380;2023-05-01T02:16:34;143996.94;;;9.75;100.00
8280;BME280;8335;42.646;23.380;2023-05-01T02:19:03;143965.88;;;9.62;100.00
8280;BME280;8335;42.646;23.380;2023-05-01T02:21:32;143952.19;;;9.57;100.00
8280;BME280;8335;42.646;23.380;2023-05-01T02:24:00;143950.97;;;9.56;100.00
8280;BME280;8335;42.646;23.380;2023-05-01T02:26:28;143946.00;;;9.54;100.00
8280;BME280;8335;42.646;23.380;2023-05-01T02:28:56;143932.34;;;9.49;100.00
8280;BME280;8335;42.646;23.380;2023-05-01T02:31:23;143912.47;;;9.41;100.00
8280;BME280;8335;42.646;23.380;2023-05-01T02:33:50;143887.66;;;9.30;100.00
8280;BME280;8335;42.646;23.380;2023-05-01T02:36:17;143885.19;;;9.29;100.00
8280;BME280;8335;42.646;23.380;2023-05-01T02:38:45;143895.09;;;9.33;100.00
8280;BME280;8335;42.646;23.380;2023-05-01T02:41:15;143897.56;;;9.34;100.00
8280;BME280;8335;42.646;23.380;2023-05-01T02:43:45;143880.19;;;9.27;100.00
8280;BME280;8335;42.646;23.380;2023-05-01T02:46:15;143887.66;;;9.30;100.00
8280;BME280;8335;42.646;23.380;2023-05-01T02:48:43;143903.81;;;9.37;100.00
8280;BME280;8335;42.646;23.380;2023-05-01T02:51:11;143902.56;;;9.36;100.00
8280;BME280;8335;42.646;23.380;2023-05-01T02:53:39;143906.28;;;9.38;100.00
8280;BME280;8335;42.646;23.380;2023-05-01T02:56:08;143885.19;;;9.29;100.00
8280;BME280;8335;42.646;23.380;2023-05-01T02:58:35;143864.03;;;9.21;100.00
8280;BME280;8335;42.646;23.380;2023-05-01T03:01:02;143865.25;;;9.21;100.00
8280;BME280;8335;42.646;23.380;2023-05-01T03:03:29;143850.41;;;9.15;100.00
8280;BME280;8335;42.646;23.380;2023-05-01T03:05:56;143842.94;;;9.12;100.00
8280;BME280;8335;42.646;23.380;2023-05-01T03:08:23;143834.25;;;9.08;100.00
8280;BME280;8335;42.646;23.380;2023-05-01T03:10:50;143814.41;;;9.00;100.00
8280;BME280;8335;42.646;23.380;2023-05-01T03:13:18;143828.03;;;9.06;100.00
8280;BME280;8335;42.646;23.380;2023-05-01T03:15:46;143818.13;;;9.02;100.00
8280;BME280;8335;42.646;23.380;2023-05-01T03:18:13;143793.25;;;8.92;100.00
8280;BME280;8335;42.646;23.380;2023-05-01T03:20:40;143748.59;;;8.73;100.00
8280;BME280;8335;42.646;23.380;2023-05-01T03:23:08;143730.00;;;8.66;100.00
8280;BME280;8335;42.646;23.380;2023-05-01T03:25:36;143697.72;;;8.52;100.00
8280;BME280;8335;42.646;23.380;2023-05-01T03:28:03;143670.38;;;8.41;100.00
8280;BME280;8335;42.646;23.380;2023-05-01T03:30:33;143671.63;;;8.42;100.00
8280;BME280;8335;42.646;23.380;2023-05-01T03:33:00;143689.00;;;8.49;100.00
8280;BME280;8335;42.646;23.380;2023-05-01T03:35:27;143696.47;;;8.52;100.00
8280;BME280;8335;42.646;23.380;2023-05-01T03:37:54;143690.25;;;8.49;100.00
8280;BME280;8335;42.646;23.380;2023-05-01T03:40:21;143720.03;;;8.62;100.00
8280;BME280;8335;42.646;23.380;2023-05-01T03:42:48;143715.09;;;8.60;100.00
8280;BME280;8335;42.646;23.380;2023-05-01T03:45:15;143742.38;;;8.71;100.00
8280;BME280;8335;42.646;23.380;2023-05-01T03:47:43;143752.31;;;8.75;100.00
8280;BME280;8335;42.646;23.380;2023-05-01T03:50:10;143769.69;;;8.82;100.00
8280;BME280;8335;42.646;23.380;2023-05-01T03:52:38;143778.34;;;8.86;100.00
8280;BME280;8335;42.646;23.380;2023-05-01T03:55:06;143820.59;;;9.03;100.00
8280;BME280;8335;42.646;23.380;2023-05-01T03:57:33;143892.59;;;9.32;100.00
8280;BME280;8335;42.646;23.380;2023-05-01T04:00:01;144011.84;;;9.81;100.00
8280;BME280;8335;42.646;23.380;2023-05-01T04:02:29;144174.69;;;10.48;98.63
8280;BME280;8335;42.646;23.380;2023-05-01T04:04:57;144368.63;;;11.27;94.12
8280;BME280;8335;42.646;23.380;2023-05-01T04:07:25;144565.31;;;12.08;88.98
8280;BME280;8335;42.646;23.380;2023-05-01T04:09:52;144725.91;;;12.74;84.03
8280;BME280;8335;42.646;23.380;2023-05-01T04:12:19;144922.75;;;13.54;79.56
8280;BME280;8335;42.646;23.380;2023-05-01T04:14:46;145119.69;;;14.35;75.74
8280;BME280;8335;42.646;23.380;2023-05-01T04:17:13;145284.38;;;15.02;71.00
8280;BME280;8335;42.646;23.380;2023-05-01T04:19:40;145444.13;;;15.67;67.39
8280;BME280;8335;42.646;23.380;2023-05-01T04:22:08;145678.84;;;16.63;64.02
8280;BME280;8335;42.646;23.380;2023-05-01T04:24:35;145916.31;;;17.59;60.00
8280;BME280;8335;42.646;23.380;2023-05-01T04:27:02;146197.75;;;18.74;55.33
8280;BME280;8335;42.646;23.380;2023-05-01T04:29:30;146448.06;;;19.76;51.99
8280;BME280;8335;42.646;23.380;2023-05-01T04:31:57;146696.06;;;20.77;48.86
8280;BME280;8335;42.646;23.380;2023-05-01T04:34:24;146922.97;;;21.69;45.85
8280;BME280;8335;42.646;23.380;2023-05-01T04:36:53;147136.19;;;22.56;43.53
8280;BME280;8335;42.646;23.380;2023-05-01T04:39:23;147323.19;;;23.31;41.18
8280;BME280;8335;42.646;23.380;2023-05-01T04:41:49;147515.31;;;24.09;39.79
8280;BME280;8335;42.646;23.380;2023-05-01T04:44:16;147696.22;;;24.83;38.18
8280;BME280;8335;42.646;23.380;2023-05-01T04:46:43;147860.84;;;25.49;36.58
8280;BME280;8335;42.646;23.380;2023-05-01T04:49:10;148020.53;;;26.14;35.50
8280;BME280;8335;42.646;23.380;2023-05-01T04:51:37;148078.44;;;26.38;34.37
8280;BME280;8335;42.646;23.380;2023-05-01T04:54:04;148307.47;;;27.30;33.78
8280;BME280;8335;42.646;23.380;2023-05-01T04:56:32;148448.47;;;27.87;32.44
8280;BME280;8335;42.646;23.380;2023-05-01T04:58:59;148500.09;;;28.08;31.61
8280;BME280;8335;42.646;23.380;2023-05-01T05:01:26;148574.41;;;28.38;31.21
8280;BME280;8335;42.646;23.380;2023-05-01T05:03:53;148661.31;;;28.73;30.42
8280;BME280;8335;42.646;23.380;2023-05-01T05:06:20;148749.53;;;29.09;30.20
8280;BME280;8335;42.646;23.380;2023-05-01T05:08:47;148861.69;;;29.54;29.33
8280;BME280;8335;42.646;23.380;2023-05-01T05:11:16;148965.03;;;29.96;28.45
8280;BME280;8335;42.646;23.380;2023-05-01T05:13:44;149054.59;;;30.32;28.24
8280;BME280;8335;42.646;23.380;2023-05-01T05:16:12;149184.50;;;30.85;27.86
8280;BME280;8335;42.646;23.380;2023-05-01T05:18:39;149290.50;;;31.28;26.81
8280;BME280;8335;42.646;23.380;2023-05-01T05:21:06;149386.41;;;31.66;26.30
8280;BME280;8335;42.646;23.380;2023-05-01T05:23:34;149486.09;;;32.07;25.96
8280;BME280;8335;42.646;23.380;2023-05-01T05:26:02;149549.28;;;32.32;25.84
8280;BME280;8335;42.646;23.380;2023-05-01T05:28:30;149631.34;;;32.65;25.10
8280;BME280;8335;42.646;23.380;2023-05-01T05:30:58;149715.94;;;32.99;25.11
8280;BME280;8335;42.646;23.380;2023-05-01T05:33:26;149782.88;;;33.26;25.07
8280;BME280;8335;42.646;23.380;2023-05-01T05:35:53;149806.88;;;33.36;24.78
8280;BME280;8335;42.646;23.380;2023-05-01T05:38:20;149761.44;;;33.18;24.92
8280;BME280;8335;42.646;23.380;2023-05-01T05:40:47;149545.44;;;32.30;25.52
8280;BME280;8335;42.646;23.380;2023-05-01T05:43:14;149444.47;;;31.90;26.53
8280;BME280;8335;42.646;23.380;2023-05-01T05:45:41;149352.34;;;31.53;27.13
8280;BME280;8335;42.646;23.380;2023-05-01T05:48:09;149315.75;;;31.38;27.19
8280;BME280;8335;42.646;23.380;2023-05-01T05:50:36;149282.94;;;31.25;27.66
8280;BME280;8335;42.646;23.380;2023-05-01T05:53:03;149236.22;;;31.06;27.59
8280;BME280;8335;42.646;23.380;2023-05-01T05:55:29;149287.97;;;31.27;28.10
8280;BME280;8335;42.646;23.380;2023-05-01T05:57:56;149293.00;;;31.29;28.27
8280;BME280;8335;42.646;23.380;2023-05-01T06:00:23;149243.81;;;31.09;28.03
8280;BME280;8335;42.646;23.380;2023-05-01T06:02:50;149276.59;;;31.22;27.63
8280;BME280;8335;42.646;23.380;2023-05-01T06:05:18;149298.09;;;31.31;27.33
8280;BME280;8335;42.646;23.380;2023-05-01T06:07:45;149325.81;;;31.42;27.75
8280;BME280;8335;42.646;23.380;2023-05-01T06:10:12;149352.34;;;31.53;28.11
8280;BME280;8335;42.646;23.380;2023-05-01T06:12:39;149361.13;;;31.56;27.53
8280;BME280;8335;42.646;23.380;2023-05-01T06:15:08;149214.78;;;30.97;27.96
8280;BME280;8335;42.646;23.380;2023-05-01T06:17:34;149039.47;;;30.26;29.11
8280;BME280;8335;42.646;23.380;2023-05-01T06:20:02;149002.91;;;30.11;29.26
8280;BME280;8335;42.646;23.380;2023-05-01T06:22:32;149045.75;;;30.29;29.75
8280;BME280;8335;42.646;23.380;2023-05-01T06:24:58;149173.19;;;30.80;28.80
8280;BME280;8335;42.646;23.380;2023-05-01T06:27:26;149222.31;;;31.00;28.89
8280;BME280;8335;42.646;23.380;2023-05-01T06:29:52;149304.38;;;31.33;29.65
8280;BME280;8335;42.646;23.380;2023-05-01T06:32:19;149173.19;;;30.80;29.19
8280;BME280;8335;42.646;23.380;2023-05-01T06:34:47;149023.06;;;30.20;29.96
8280;BME280;8335;42.646;23.380;2023-05-01T06:37:14;149067.22;;;30.37;29.40
8280;BME280;8335;42.646;23.380;2023-05-01T06:39:42;149074.75;;;30.40;28.99
8280;BME280;8335;42.646;23.380;2023-05-01T06:42:09;149126.47;;;30.61;29.39
8280;BME280;8335;42.646;23.380;2023-05-01T06:44:40;149261.47;;;31.16;29.66
8280;BME280;8335;42.646;23.380;2023-05-01T06:47:06;149315.75;;;31.38;29.08
8280;BME280;8335;42.646;23.380;2023-05-01T06:49:33;149419.25;;;31.80;28.04
8280;BME280;8335;42.646;23.380;2023-05-01T06:52:00;149267.75;;;31.18;27.99
8280;BME280;8335;42.646;23.380;2023-05-01T06:54:27;149071.00;;;30.39;29.23
8280;BME280;8335;42.646;23.380;2023-05-01T06:56:55;148958.75;;;29.94;30.61
8280;BME280;8335;42.646;23.380;2023-05-01T06:59:22;148957.47;;;29.93;29.86
8280;BME280;8335;42.646;23.380;2023-05-01T07:01:49;148944.88;;;29.88;30.81
8280;BME280;8335;42.646;23.380;2023-05-01T07:04:16;148836.47;;;29.44;30.75
8280;BME280;8335;42.646;23.380;2023-05-01T07:06:43;148957.47;;;29.93;30.34
8280;BME280;8335;42.646;23.380;2023-05-01T07:09:11;149127.72;;;30.62;29.27
8280;BME280;8335;42.646;23.380;2023-05-01T07:11:38;149287.97;;;31.27;27.94
8280;BME280;8335;42.646;23.380;2023-05-01T07:14:08;149412.88;;;31.77;28.07
8280;BME280;8335;42.646;23.380;2023-05-01T07:16:34;149414.16;;;31.77;27.41
8280;BME280;8335;42.646;23.380;2023-05-01T07:19:01;149178.22;;;30.82;28.02
8280;BME280;8335;42.646;23.380;2023-05-01T07:21:28;149141.66;;;30.67;28.60
8280;BME280;8335;42.646;23.380;2023-05-01T07:23:55;149228.66;;;31.03;28.47
8280;BME280;8335;42.646;23.380;2023-05-01T07:26:24;149354.84;;;31.54;27.79
8280;BME280;8335;42.646;23.380;2023-05-01T07:28:51;149518.91;;;32.20;26.91
8280;BME280;8335;42.646;23.380;2023-05-01T07:31:19;149630.03;;;32.65;26.38
8280;BME280;8335;42.646;23.380;2023-05-01T07:33:46;149700.78;;;32.93;26.21
8280;BME280;8335;42.646;23.380;2023-05-01T07:36:13;149700.78;;;32.93;26.58
8280;BME280;8335;42.646;23.380;2023-05-01T07:38:41;149623.75;;;32.62;26.63
8280;BME280;8335;42.646;23.380;2023-05-01T07:41:07;149684.41;;;32.87;27.40
8280;BME280;8335;42.646;23.380;2023-05-01T07:43:34;149614.94;;;32.58;26.26
8280;BME280;8335;42.646;23.380;2023-05-01T07:46:01;149416.69;;;31.78;27.87
8280;BME280;8335;42.646;23.380;2023-05-01T07:48:30;149112.56;;;30.56;28.25
8280;BME280;8335;42.646;23.380;2023-05-01T07:51:00;149013.00;;;30.16;28.40
8280;BME280;8335;42.646;23.380;2023-05-01T07:53:27;149106.28;;;30.53;28.72
8280;BME280;8335;42.646;23.380;2023-05-01T07:56:03;149155.53;;;30.73;28.73
8280;BME280;8335;42.646;23.380;2023-05-01T07:58:30;149044.50;;;30.28;28.32
8280;BME280;8335;42.646;23.380;2023-05-01T08:00:57;149040.72;;;30.27;29.74
8280;BME280;8335;42.646;23.380;2023-05-01T08:03:24;149065.94;;;30.37;28.73
8280;BME280;8335;42.646;23.380;2023-05-01T08:05:52;149183.25;;;30.84;29.18
8280;BME280;8335;42.646;23.380;2023-05-01T08:08:18;149036.94;;;30.25;29.35
8280;BME280;8335;42.646;23.380;2023-05-01T08:10:45;148915.88;;;29.76;29.43
8280;BME280;8335;42.646;23.380;2023-05-01T08:13:12;148937.31;;;29.85;28.35
8280;BME280;8335;42.646;23.380;2023-05-01T08:15:40;149045.75;;;30.29;28.34
8280;BME280;8335;42.646;23.380;2023-05-01T08:18:07;149212.25;;;30.96;28.57
8280;BME280;8335;42.646;23.380;2023-05-01T08:20:34;149192.09;;;30.88;28.01
8280;BME280;8335;42.646;23.380;2023-05-01T08:23:02;149155.53;;;30.73;26.76
8280;BME280;8335;42.646;23.380;2023-05-01T08:25:29;149213.53;;;30.96;27.47
8280;BME280;8335;42.646;23.380;2023-05-01T08:27:56;149253.88;;;31.13;27.55
8280;BME280;8335;42.646;23.380;2023-05-01T08:30:23;149218.56;;;30.99;26.92
8280;BME280;8335;42.646;23.380;2023-05-01T08:32:50;148982.69;;;30.03;27.48
8280;BME280;8335;42.646;23.380;2023-05-01T08:35:17;149049.56;;;30.30;27.74
8280;BME280;8335;42.646;23.380;2023-05-01T08:37:45;149082.34;;;30.44;27.66
8280;BME280;8335;42.646;23.380;2023-05-01T08:40:13;149137.81;;;30.66;27.36
8280;BME280;8335;42.646;23.380;2023-05-01T08:42:40;149055.84;;;30.33;27.27
8280;BME280;8335;42.646;23.380;2023-05-01T08:45:08;149184.50;;;30.85;27.03
8280;BME280;8335;42.646;23.380;2023-05-01T08:47:36;148938.56;;;29.85;26.42
8280;BME280;8335;42.646;23.380;2023-05-01T08:50:08;148832.66;;;29.43;26.89
8280;BME280;8335;42.646;23.380;2023-05-01T08:52:37;148888.19;;;29.65;25.65
8280;BME280;8335;42.646;23.380;2023-05-01T08:55:07;148871.81;;;29.58;26.10
8280;BME280;8335;42.646;23.380;2023-05-01T08:57:43;148895.72;;;29.68;26.77
8280;BME280;8335;42.646;23.380;2023-05-01T09:00:16;149088.63;;;30.46;26.08
8280;BME280;8335;42.646;23.380;2023-05-01T09:02:45;149118.91;;;30.58;26.23
8280;BME280;8335;42.646;23.380;2023-05-01T09:05:13;149125.19;;;30.61;25.88
8280;BME280;8335;42.646;23.380;2023-05-01T09:07:42;149052.06;;;30.31;26.62
8280;BME280;8335;42.646;23.380;2023-05-01T09:10:10;148918.41;;;29.77;27.26
8280;BME280;8335;42.646;23.380;2023-05-01T09:12:39;148828.88;;;29.41;27.67
8280;BME280;8335;42.646;23.380;2023-05-01T09:15:10;148631.06;;;28.61;27.96
8280;BME280;8335;42.646;23.380;2023-05-01T09:17:37;148570.66;;;28.37;29.67
8280;BME280;8335;42.646;23.380;2023-05-01T09:20:05;148639.91;;;28.65;29.13
8280;BME280;8335;42.646;23.380;2023-05-01T09:22:33;148719.28;;;28.97;28.96
8280;BME280;8335;42.646;23.380;2023-05-01T09:25:01;148794.88;;;29.27;27.54
8280;BME280;8335;42.646;23.380;2023-05-01T09:27:28;148607.16;;;28.51;28.68
8280;BME280;8335;42.646;23.380;2023-05-01T09:29:57;148706.69;;;28.92;27.87
8280;BME280;8335;42.646;23.380;2023-05-01T09:32:25;148730.66;;;29.01;27.99
8280;BME280;8335;42.646;23.380;2023-05-01T09:34:53;148493.78;;;28.06;28.61
8280;BME280;8335;42.646;23.380;2023-05-01T09:37:25;148413.22;;;27.73;28.83
8280;BME280;8335;42.646;23.380;2023-05-01T09:40:06;148483.72;;;28.02;28.89
8280;BME280;8335;42.646;23.380;2023-05-01T09:42:34;148594.56;;;28.46;29.54
8280;BME280;8335;42.646;23.380;2023-05-01T09:45:05;148799.94;;;29.29;28.13
8280;BME280;8335;42.646;23.380;2023-05-01T09:47:33;148774.72;;;29.19;27.63
8280;BME280;8335;42.646;23.380;2023-05-01T09:50:00;148874.31;;;29.59;27.27
8280;BME280;8335;42.646;23.380;2023-05-01T09:52:27;148691.50;;;28.86;28.42
8280;BME280;8335;42.646;23.380;2023-05-01T09:55:13;148477.41;;;27.99;29.25
8280;BME280;8335;42.646;23.380;2023-05-01T09:57:41;148532.78;;;28.21;28.78
8280;BME280;8335;42.646;23.380;2023-05-01T10:00:12;148541.63;;;28.25;28.97
8280;BME280;8335;42.646;23.380;2023-05-01T10:02:40;148634.84;;;28.63;29.38
8280;BME280;8335;42.646;23.380;2023-05-01T10:05:08;148759.59;;;29.13;29.36
8280;BME280;8335;42.646;23.380;2023-05-01T10:07:35;148593.31;;;28.46;27.92
8280;BME280;8335;42.646;23.380;2023-05-01T10:10:16;148308.72;;;27.31;29.12
8280;BME280;8335;42.646;23.380;2023-05-01T10:12:43;148316.25;;;27.34;29.43
8280;BME280;8335;42.646;23.380;2023-05-01T10:15:11;148406.91;;;27.70;28.94
8280;BME280;8335;42.646;23.380;2023-05-01T10:17:39;148303.66;;;27.29;32.11
8280;BME280;8335;42.646;23.380;2023-05-01T10:20:07;148278.50;;;27.19;31.97
8280;BME280;8335;42.646;23.380;2023-05-01T10:22:35;148116.19;;;26.53;31.23
8280;BME280;8335;42.646;23.380;2023-05-01T10:25:02;148208.00;;;26.90;31.83
8280;BME280;8335;42.646;23.380;2023-05-01T10:27:29;148238.22;;;27.02;31.65
8280;BME280;8335;42.646;23.380;2023-05-01T10:30:01;147953.94;;;25.87;31.82
8280;BME280;8335;42.646;23.380;2023-05-01T10:32:31;147781.69;;;25.17;33.82
8280;BME280;8335;42.646;23.380;2023-05-01T10:35:00;147750.28;;;25.05;34.20
8280;BME280;8335;42.646;23.380;2023-05-01T10:37:32;147781.69;;;25.17;35.85
8280;BME280;8335;42.646;23.380;2023-05-01T10:43:19;147622.09;;;24.53;34.68
8280;BME280;8335;42.646;23.380;2023-05-01T10:45:50;147635.94;;;24.58;34.21
8280;BME280;8335;42.646;23.380;2023-05-01T10:48:53;147564.28;;;24.29;35.14
8280;BME280;8335;42.646;23.380;2023-05-01T10:51:21;147352.06;;;23.43;37.66
8280;BME280;8335;42.646;23.380;2023-05-01T10:53:49;147178.84;;;22.73;39.01
8280;BME280;8335;42.646;23.380;2023-05-01T10:56:40;147088.56;;;22.36;40.14
8280;BME280;8335;42.646;23.380;2023-05-01T10:59:08;147069.69;;;22.29;39.91
8280;BME280;8335;42.646;23.380;2023-05-01T11:01:37;147137.44;;;22.56;39.79
8280;BME280;8335;42.646;23.380;2023-05-01T11:04:06;147119.88;;;22.49;40.81
8280;BME280;8335;42.646;23.380;2023-05-01T11:06:34;147079.75;;;22.33;39.56
8280;BME280;8335;42.646;23.380;2023-05-01T11:09:37;147064.69;;;22.27;39.63
8280;BME280;8335;42.646;23.380;2023-05-01T11:12:06;147107.34;;;22.44;41.31
8280;BME280;8335;42.646;23.380;2023-05-01T11:15:00;147069.69;;;22.29;40.02
8280;BME280;8335;42.646;23.380;2023-05-01T11:17:52;147060.94;;;22.25;39.04
8280;BME280;8335;42.646;23.380;2023-05-01T11:20:48;147091.06;;;22.37;39.25
8280;BME280;8335;42.646;23.380;2023-05-01T11:23:19;147146.22;;;22.60;39.82
8280;BME280;8335;42.646;23.380;2023-05-01T11:25:46;147190.13;;;22.77;38.87
8280;BME280;8335;42.646;23.380;2023-05-01T11:28:18;147099.81;;;22.41;37.97
8280;BME280;8335;42.646;23.380;2023-05-01T11:30:46;147048.38;;;22.20;38.99
8280;BME280;8335;42.646;23.380;2023-05-01T11:33:15;147087.25;;;22.36;38.65
8280;BME280;8335;42.646;23.380;2023-05-01T11:35:55;147045.88;;;22.19;39.70
8280;BME280;8335;42.646;23.380;2023-05-01T11:38:22;146989.41;;;21.96;40.05
8280;BME280;8335;42.646;23.380;2023-05-01T11:40:53;146994.41;;;21.98;39.46
8280;BME280;8335;42.646;23.380;2023-05-01T11:43:20;146986.91;;;21.95;40.69
8280;BME280;8335;42.646;23.380;2023-05-01T11:45:51;146960.56;;;21.84;38.58
8280;BME280;8335;42.646;23.380;2023-05-01T11:48:19;146882.84;;;21.53;38.91
8280;BME280;8335;42.646;23.380;2023-05-01T11:50:47;146702.38;;;20.79;39.14
8280;BME280;8335;42.646;23.380;2023-05-01T11:53:15;146821.41;;;21.28;38.74
8280;BME280;8335;42.646;23.380;2023-05-01T11:55:42;146821.41;;;21.28;39.77
8280;BME280;8335;42.646;23.380;2023-05-01T11:58:08;146825.22;;;21.29;38.77
8280;BME280;8335;42.646;23.380;2023-05-01T12:00:37;146856.50;;;21.42;38.44
8280;BME280;8335;42.646;23.380;2023-05-01T12:03:05;146894.13;;;21.57;38.20
8280;BME280;8335;42.646;23.380;2023-05-01T12:05:34;146860.31;;;21.43;38.07
8280;BME280;8335;42.646;23.380;2023-05-01T12:08:11;146905.41;;;21.62;37.95
8280;BME280;8335;42.646;23.380;2023-05-01T12:10:39;146904.16;;;21.61;37.69
8280;BME280;8335;42.646;23.380;2023-05-01T12:13:08;146891.59;;;21.56;37.97
8280;BME280;8335;42.646;23.380;2023-05-01T12:15:36;146847.75;;;21.38;38.50
8280;BME280;8335;42.646;23.380;2023-05-01T12:18:04;146743.69;;;20.96;38.46
8280;BME280;8335;42.646;23.380;2023-05-01T12:20:38;146664.75;;;20.64;38.17
8280;BME280;8335;42.646;23.380;2023-05-01T12:23:06;146617.19;;;20.45;38.42
8280;BME280;8335;42.646;23.380;2023-05-01T12:25:36;146620.94;;;20.46;37.89
8280;BME280;8335;42.646;23.380;2023-05-01T12:28:07;146630.97;;;20.50;38.41
8280;BME280;8335;42.646;23.380;2023-05-01T12:30:35;146639.72;;;20.54;39.28
8280;BME280;8335;42.646;23.380;2023-05-01T12:33:08;146676.03;;;20.69;37.48
8280;BME280;8335;42.646;23.380;2023-05-01T12:35:35;146717.38;;;20.85;37.14
8280;BME280;8335;42.646;23.380;2023-05-01T12:38:10;146714.88;;;20.84;36.65
8280;BME280;8335;42.646;23.380;2023-05-01T12:40:39;146721.16;;;20.87;35.77
8280;BME280;8335;42.646;23.380;2023-05-01T12:43:06;146738.69;;;20.94;35.18
8280;BME280;8335;42.646;23.380;2023-05-01T12:45:39;146677.28;;;20.69;35.61
8280;BME280;8335;42.646;23.380;2023-05-01T12:48:11;146681.03;;;20.71;36.08
8280;BME280;8335;42.646;23.380;2023-05-01T12:50:39;146699.81;;;20.78;39.69
8280;BME280;8335;42.646;23.380;2023-05-01T12:53:06;146688.59;;;20.74;40.92
8280;BME280;8335;42.646;23.380;2023-05-01T12:55:43;146647.22;;;20.57;39.43
8280;BME280;8335;42.646;23.380;2023-05-01T12:58:11;146557.00;;;20.20;40.21
8280;BME280;8335;42.646;23.380;2023-05-01T13:00:43;146557.00;;;20.20;40.69
8280;BME280;8335;42.646;23.380;2023-05-01T13:03:10;146488.13;;;19.92;42.05
8280;BME280;8335;42.646;23.380;2023-05-01T13:05:49;146413.03;;;19.62;43.98
8280;BME280;8335;42.646;23.380;2023-05-01T13:08:24;146385.47;;;19.50;44.17
8280;BME280;8335;42.646;23.380;2023-05-01T13:10:53;146423.06;;;19.66;43.08
8280;BME280;8335;42.646;23.380;2023-05-01T13:13:27;146391.72;;;19.53;43.51